createdAt,value
2022-11-15T00:01:19.008Z,3.57
2022-11-15T00:03:47.355Z,2.60
2022-11-15T00:06:15.219Z,1.98
2022-11-15T00:08:43.060Z,4.55
2022-11-15T00:11:13.273Z,4.70
2022-11-15T00:13:41.230Z,3.15
2022-11-15T00:16:11.693Z,3.40
2022-11-15T00:18:40.372Z,3.25
2022-11-15T00:21:11.359Z,5.63
2022-11-15T00:23:39.446Z,4.20
2022-11-15T00:26:07.726Z,3.72
2022-11-15T00:28:35.607Z,6.47
2022-11-15T00:31:04.102Z,7.00
2022-11-15T00:33:34.228Z,6.85
2022-11-15T00:38:33.410Z,4.10
2022-11-15T00:41:06.252Z,3.70
2022-11-15T00:43:36.859Z,3.95
2022-11-15T00:46:04.892Z,4.57
2022-11-15T00:48:34.206Z,5.47
2022-11-15T00:51:02.141Z,7.15
2022-11-15T00:53:30.618Z,9.32
2022-11-15T00:55:58.767Z,6.70
2022-11-15T00:58:26.704Z,7.97
2022-11-15T01:00:54.634Z,5.30
2022-11-15T01:03:22.604Z,4.50
2022-11-15T01:05:51.853Z,5.53
2022-11-15T01:08:19.702Z,4.05
2022-11-15T01:10:50.033Z,7.35
2022-11-15T01:15:45.827Z,5.07
2022-11-15T01:18:13.804Z,5.60
2022-11-15T01:20:42.998Z,7.50
2022-11-15T01:23:12.489Z,7.22
2022-11-15T01:25:40.357Z,8.40
2022-11-15T01:28:08.593Z,10.30
2022-11-15T01:30:38.030Z,10.20
2022-11-15T01:33:05.914Z,9.70
2022-11-15T01:35:33.904Z,12.88
2022-11-15T01:38:01.764Z,8.07
2022-11-15T01:40:31.116Z,9.70
2022-11-15T01:42:59.013Z,10.38
2022-11-15T01:45:27.217Z,10.68
2022-11-15T01:47:57.496Z,3.40
2022-11-15T01:55:26.966Z,4.68
2022-11-15T01:58:00.137Z,6.65
2022-11-15T02:00:28.179Z,6.22
2022-11-15T02:02:56.167Z,5.63
2022-11-15T02:05:24.310Z,5.68
2022-11-15T02:07:52.740Z,5.13
2022-11-15T02:10:23.367Z,4.32
2022-11-15T02:12:52.661Z,6.63
2022-11-15T02:15:22.485Z,3.78
2022-11-15T02:18:04.768Z,3.70
2022-11-15T02:20:46.527Z,4.05
2022-11-15T02:23:47.773Z,3.92
2022-11-15T02:26:53.892Z,3.80
2022-11-15T02:29:37.554Z,4.15
2022-11-15T02:32:16.787Z,5.22
2022-11-15T02:34:53.473Z,5.05
2022-11-15T02:37:29.060Z,6.10
2022-11-15T02:40:04.311Z,8.70
2022-11-15T02:42:53.029Z,7.22
2022-11-15T02:45:26.434Z,10.57
2022-11-15T02:47:59.358Z,9.57
2022-11-15T02:50:31.298Z,8.93
2022-11-15T02:52:59.284Z,7.88
2022-11-15T02:55:29.202Z,7.93
2022-11-15T02:58:11.542Z,7.20
2022-11-15T03:00:49.752Z,6.22
2022-11-15T03:03:37.677Z,6.45
2022-11-15T03:06:16.335Z,5.45
2022-11-15T03:08:57.307Z,5.32
2022-11-15T03:11:25.744Z,4.68
2022-11-15T03:13:58.972Z,6.25
2022-11-15T03:16:32.028Z,5.70
2022-11-15T03:19:06.678Z,9.10
2022-11-15T03:21:36.949Z,9.07
2022-11-15T03:29:08.597Z,10.65
2022-11-15T03:31:51.657Z,8.32
2022-11-15T03:34:29.468Z,10.13
2022-11-15T03:36:57.649Z,10.50
2022-11-15T03:39:26.046Z,12.50
2022-11-15T03:42:04.990Z,13.55
2022-11-15T03:44:42.533Z,12.15
2022-11-15T03:47:14.845Z,14.93
2022-11-15T03:49:48.562Z,17.15
2022-11-15T03:52:20.255Z,14.10
2022-11-15T03:54:53.243Z,18.25
2022-11-15T03:57:21.187Z,21.45
2022-11-15T03:59:49.062Z,15.07
2022-11-15T04:02:17.003Z,16.98
2022-11-15T04:04:48.558Z,13.13
2022-11-15T04:07:16.465Z,17.15
2022-11-15T04:09:58.352Z,15.32
2022-11-15T04:12:32.655Z,14.05
2022-11-15T04:15:11.187Z,15.60
2022-11-15T04:17:41.241Z,14.88
2022-11-15T04:20:30.493Z,10.02
2022-11-15T04:23:16.981Z,14.38
2022-11-15T04:25:46.010Z,12.68
2022-11-15T04:28:14.182Z,14.43
2022-11-15T04:30:42.088Z,16.23
2022-11-15T04:33:10.163Z,14.93
2022-11-15T04:35:39.523Z,16.15
2022-11-15T04:38:08.389Z,13.87
2022-11-15T04:40:36.755Z,14.10
2022-11-15T04:43:05.076Z,12.57
2022-11-15T04:45:32.947Z,10.63
2022-11-15T04:48:00.799Z,9.38
2022-11-15T04:50:28.976Z,8.98
2022-11-15T04:52:58.214Z,9.43
2022-11-15T04:55:28.965Z,8.82
2022-11-15T04:58:01.658Z,6.70
2022-11-15T05:00:30.671Z,9.27
2022-11-15T05:03:16.227Z,10.95
2022-11-15T05:05:44.261Z,8.88
2022-11-15T05:08:13.475Z,13.43
2022-11-15T05:10:41.309Z,8.48
2022-11-15T05:13:09.187Z,7.63
2022-11-15T05:15:37.044Z,5.70
2022-11-15T05:18:05.080Z,6.63
2022-11-15T05:20:33.057Z,7.85
2022-11-15T05:23:04.087Z,9.48
2022-11-15T05:25:33.520Z,4.95
2022-11-15T05:28:01.395Z,5.80
2022-11-15T05:30:29.242Z,5.65
2022-11-15T05:32:57.527Z,7.90
2022-11-15T05:35:33.009Z,4.03
2022-11-15T05:38:00.936Z,2.90
2022-11-15T05:40:29.590Z,5.35
2022-11-15T05:42:59.583Z,2.33
2022-11-15T05:45:27.517Z,2.95
2022-11-15T05:47:58.207Z,3.80
2022-11-15T05:50:26.343Z,2.95
2022-11-15T05:52:54.351Z,6.63
2022-11-15T05:55:22.620Z,5.80
2022-11-15T05:57:50.602Z,4.03
2022-11-15T06:00:20.667Z,4.57
2022-11-15T06:02:48.519Z,4.57
2022-11-15T06:05:16.422Z,2.97
2022-11-15T06:07:45.242Z,2.80
2022-11-15T06:10:13.414Z,4.93
2022-11-15T06:12:41.494Z,6.80
2022-11-15T06:15:10.519Z,3.25
2022-11-15T06:17:39.950Z,3.53
2022-11-15T06:20:11.827Z,5.73
2022-11-15T06:22:42.522Z,6.50
2022-11-15T06:25:10.867Z,5.05
2022-11-15T06:27:38.852Z,6.90
2022-11-15T06:30:08.024Z,6.28
2022-11-15T06:32:35.902Z,6.03
2022-11-15T06:35:06.161Z,3.55
2022-11-15T06:37:35.749Z,5.43
2022-11-15T06:40:03.636Z,5.45
2022-11-15T06:42:31.497Z,4.47
2022-11-15T06:44:59.417Z,4.45
2022-11-15T06:47:27.406Z,8.35
2022-11-15T06:49:55.298Z,7.88
2022-11-15T06:52:24.545Z,6.95
2022-11-15T06:54:52.434Z,5.57
2022-11-15T06:57:20.330Z,4.15
2022-11-15T06:59:48.335Z,4.18
2022-11-15T07:02:16.221Z,5.18
2022-11-15T07:04:44.147Z,5.35
2022-11-15T07:07:12.121Z,4.88
2022-11-15T07:09:41.478Z,6.53
2022-11-15T07:12:09.385Z,5.75
2022-11-15T07:14:37.258Z,6.50
2022-11-15T07:17:06.060Z,6.45
2022-11-15T07:19:34.134Z,3.33
2022-11-15T07:22:02.008Z,3.45
2022-11-15T07:24:30.125Z,3.45
2022-11-15T07:26:59.467Z,7.35
2022-11-15T07:29:27.588Z,3.17
2022-11-15T07:31:55.790Z,7.57
2022-11-15T07:34:24.748Z,5.32
2022-11-15T07:36:52.658Z,2.60
2022-11-15T07:39:20.865Z,3.53
2022-11-15T07:41:49.204Z,2.50
2022-11-15T07:44:18.433Z,2.67
2022-11-15T07:46:46.267Z,3.20
2022-11-15T07:49:14.163Z,3.53
2022-11-15T07:51:41.986Z,2.63
2022-11-15T07:54:09.973Z,2.25
2022-11-15T07:56:37.886Z,5.53
2022-11-15T07:59:05.946Z,1.75
2022-11-15T08:01:35.196Z,3.55
2022-11-15T08:04:03.142Z,3.67
2022-11-15T08:06:31.583Z,5.53
2022-11-15T08:08:59.445Z,6.68
2022-11-15T08:11:27.312Z,4.32
2022-11-15T08:13:55.190Z,3.10
2022-11-15T08:16:23.318Z,5.03
2022-11-15T08:18:52.788Z,4.15
2022-11-15T08:21:22.345Z,2.70
2022-11-15T08:23:50.466Z,6.40
2022-11-15T08:26:18.357Z,3.40
2022-11-15T08:28:46.287Z,7.60
2022-11-15T09:12:03.177Z,1.13
2022-11-15T09:14:31.390Z,4.77
2022-11-15T09:16:59.394Z,2.75
2022-11-15T09:19:27.748Z,1.63
2022-11-15T09:21:55.649Z,6.13
2022-11-15T09:24:23.543Z,1.63
2022-11-15T09:26:52.472Z,1.42
2022-11-15T09:29:21.751Z,4.35
2022-11-15T09:31:50.511Z,4.63
2022-11-15T09:34:18.396Z,2.25
2022-11-15T09:36:46.283Z,6.78
2022-11-15T09:39:14.215Z,3.10
2022-11-15T09:42:23.738Z,1.73
2022-11-15T09:45:06.658Z,3.27
2022-11-15T09:48:02.219Z,2.30
2022-11-15T09:50:37.214Z,7.65
2022-11-15T09:53:05.602Z,4.75
2022-11-15T09:55:41.442Z,5.30
2022-11-15T09:58:21.509Z,4.93
2022-11-15T10:00:54.882Z,1.55
2022-11-15T10:03:29.441Z,1.48
2022-11-15T10:06:02.791Z,2.80
2022-11-15T10:08:42.704Z,2.08
2022-11-15T10:14:04.328Z,7.40
2022-11-15T10:17:03.692Z,1.65
2022-11-15T10:19:40.644Z,5.88
2022-11-15T10:22:23.786Z,2.40
2022-11-15T10:24:54.784Z,3.33
2022-11-15T10:27:22.745Z,4.13
2022-11-15T10:29:51.909Z,7.93
2022-11-15T10:32:25.865Z,4.68
2022-11-15T10:34:53.792Z,5.10
2022-11-15T10:37:31.437Z,5.45
2022-11-15T10:40:06.394Z,3.08
2022-11-15T10:42:34.394Z,3.20
2022-11-15T10:45:02.384Z,2.60
2022-11-15T10:47:38.900Z,3.45
2022-11-15T10:50:26.985Z,2.65
2022-11-15T10:52:55.502Z,3.22
2022-11-15T10:55:28.065Z,4.95
2022-11-15T10:57:57.482Z,3.15
2022-11-15T11:00:37.682Z,2.87
2022-11-15T11:03:22.702Z,3.95
2022-11-15T11:05:51.056Z,2.75
2022-11-15T11:08:25.214Z,3.50
2022-11-15T11:11:02.604Z,2.75
2022-11-15T11:13:34.225Z,3.13
2022-11-15T11:16:20.161Z,14.00
2022-11-15T11:18:59.981Z,5.03
2022-11-15T11:21:40.150Z,4.18
2022-11-15T11:26:51.714Z,4.30
2022-11-15T11:29:35.952Z,3.00
2022-11-15T11:32:15.994Z,2.53
2022-11-15T11:34:58.031Z,5.85
2022-11-15T11:37:32.969Z,1.52
2022-11-15T11:40:15.803Z,7.32
2022-11-15T11:43:00.366Z,6.00
2022-11-15T11:45:51.035Z,1.38
2022-11-15T11:48:34.935Z,1.27
2022-11-15T11:51:12.446Z,1.55
2022-11-15T11:53:47.971Z,2.35
2022-11-15T11:56:24.826Z,1.80
2022-11-15T11:58:55.945Z,5.45
2022-11-15T12:01:26.955Z,4.82
2022-11-15T12:03:59.656Z,2.50
2022-11-15T12:06:34.507Z,2.83
2022-11-15T12:09:09.289Z,2.17
2022-11-15T12:11:44.479Z,3.53
2022-11-15T12:14:27.386Z,3.35
2022-11-15T12:16:55.626Z,3.28
2022-11-15T12:19:23.522Z,2.00
2022-11-15T12:21:58.762Z,2.00
2022-11-15T12:24:30.590Z,1.88
2022-11-15T12:27:03.808Z,2.90
2022-11-15T12:29:38.321Z,2.33
2022-11-15T12:32:08.370Z,4.72
2022-11-15T12:34:46.102Z,3.03
2022-11-15T12:37:51.728Z,4.10
2022-11-15T12:40:23.243Z,4.22
2022-11-15T12:43:03.768Z,2.97
2022-11-15T12:45:34.310Z,2.13
2022-11-15T12:48:58.726Z,2.95
2022-11-15T12:52:06.995Z,3.67
2022-11-15T12:55:34.391Z,3.45
2022-11-15T12:58:31.481Z,1.85
2022-11-15T13:00:59.540Z,3.40
2022-11-15T13:03:29.594Z,5.28
2022-11-15T13:06:27.150Z,2.28
2022-11-15T13:08:55.051Z,1.33
2022-11-15T13:11:49.432Z,2.17
2022-11-15T13:14:47.782Z,9.02
2022-11-15T13:17:38.737Z,7.20
2022-11-15T13:20:25.440Z,4.35
2022-11-15T13:22:55.563Z,4.97
2022-11-15T13:25:50.931Z,3.22
2022-11-15T13:28:27.447Z,5.30
2022-11-15T13:31:00.517Z,3.58
2022-11-15T13:33:36.221Z,5.15
2022-11-15T13:36:08.750Z,2.47
2022-11-15T13:38:40.395Z,1.52
2022-11-15T13:41:22.102Z,1.73
2022-11-15T13:43:51.073Z,3.13
2022-11-15T13:46:22.248Z,2.53
2022-11-15T13:48:55.215Z,5.43
2022-11-15T13:51:29.177Z,2.20
2022-11-15T13:54:00.255Z,2.83
2022-11-15T13:56:30.418Z,4.78
2022-11-15T13:58:58.896Z,6.00
2022-11-15T14:01:34.046Z,6.18
2022-11-15T14:04:03.553Z,7.90
2022-11-15T14:06:33.118Z,8.17
2022-11-15T14:09:18.018Z,2.03
2022-11-15T14:11:53.273Z,2.25
2022-11-15T14:14:23.979Z,1.88
2022-11-15T14:16:55.197Z,4.35
2022-11-15T14:19:40.802Z,3.05
2022-11-15T14:22:17.968Z,2.80
2022-11-15T14:24:48.550Z,1.52
2022-11-15T14:27:25.621Z,3.20
2022-11-15T14:29:54.257Z,6.47
2022-11-15T14:32:26.029Z,4.10
2022-11-15T14:34:57.556Z,1.35
2022-11-15T14:37:27.210Z,4.00
2022-11-15T14:39:55.593Z,5.60
2022-11-15T14:42:24.942Z,2.17
2022-11-15T14:44:53.615Z,0.85
2022-11-15T14:47:23.102Z,2.45
2022-11-15T14:49:51.083Z,5.53
2022-11-15T14:52:31.913Z,3.03
2022-11-15T14:55:02.440Z,2.40
2022-11-15T14:57:30.516Z,3.25
2022-11-15T14:59:59.090Z,3.60
2022-11-15T15:02:29.595Z,1.63
2022-11-15T15:05:02.040Z,5.45
2022-11-15T15:07:30.296Z,1.52
2022-11-15T15:10:24.586Z,1.95
2022-11-15T15:12:46.138Z,6.88
2022-11-15T15:15:18.717Z,3.88
2022-11-15T15:17:47.958Z,1.35
2022-11-15T15:20:16.090Z,5.03
2022-11-15T15:22:44.365Z,6.55
2022-11-15T15:25:24.525Z,5.63
2022-11-15T15:27:52.590Z,4.47
2022-11-15T15:30:20.882Z,2.47
2022-11-15T15:32:50.303Z,4.05
2022-11-15T15:35:19.524Z,6.27
2022-11-15T15:37:48.686Z,2.17
2022-11-15T15:40:21.015Z,2.83
2022-11-15T15:42:49.714Z,1.60
2022-11-15T15:45:19.233Z,3.15
2022-11-15T15:47:48.107Z,1.20
2022-11-15T15:50:28.639Z,3.28
2022-11-15T15:52:58.458Z,5.43
2022-11-15T15:55:26.785Z,4.93
2022-11-15T15:57:55.419Z,3.75
2022-11-15T16:00:25.791Z,5.80
2022-11-15T16:02:53.959Z,4.00
2022-11-15T16:05:22.089Z,4.15
2022-11-15T16:07:51.603Z,4.82
2022-11-15T16:10:26.120Z,1.80
2022-11-15T16:12:55.351Z,3.05
2022-11-15T16:15:24.573Z,5.50
2022-11-15T16:17:54.298Z,2.65
2022-11-15T16:20:31.926Z,2.85
2022-11-15T16:23:07.259Z,2.25
2022-11-15T16:25:40.655Z,1.40
2022-11-15T16:28:18.651Z,2.15
2022-11-15T16:30:46.540Z,2.17
2022-11-15T16:33:14.418Z,2.50
2022-11-15T16:35:42.485Z,1.27
2022-11-15T16:38:16.476Z,2.15
2022-11-15T16:40:44.507Z,2.88
2022-11-15T16:43:12.704Z,3.72
2022-11-15T16:45:41.042Z,3.88
2022-11-15T16:48:17.179Z,4.38
2022-11-15T16:50:46.406Z,2.33
2022-11-15T16:53:16.089Z,2.53
2022-11-15T16:55:44.008Z,5.68
2022-11-15T16:58:11.894Z,4.78
2022-11-15T17:00:40.148Z,2.50
2022-11-15T17:05:22.380Z,3.08
2022-11-15T17:07:54.102Z,1.67
2022-11-15T17:10:27.189Z,1.45
2022-11-15T17:12:57.106Z,2.08
2022-11-15T17:15:25.557Z,2.03
2022-11-15T17:17:54.250Z,2.70
2022-11-15T17:20:25.761Z,2.28
2022-11-15T17:22:53.844Z,2.10
2022-11-15T17:25:21.789Z,4.85
2022-11-15T17:27:49.940Z,1.85
2022-11-15T17:30:18.778Z,4.07
2022-11-15T17:32:47.151Z,7.20
2022-11-15T17:35:15.946Z,2.72
2022-11-15T17:37:45.448Z,1.50
2022-11-15T17:40:13.649Z,1.05
2022-11-15T17:42:43.214Z,3.40
2022-11-15T17:45:12.439Z,1.77
2022-11-15T17:47:40.706Z,3.25
2022-11-15T17:50:09.615Z,3.38
2022-11-15T17:52:37.855Z,1.83
2022-11-15T17:55:08.377Z,3.28
2022-11-15T17:57:36.215Z,3.38
2022-11-15T18:00:06.274Z,1.95
2022-11-15T18:02:34.078Z,1.52
2022-11-15T18:05:02.067Z,3.00
2022-11-15T18:07:30.002Z,2.50
2022-11-15T18:09:57.997Z,4.07
2022-11-15T18:12:27.333Z,3.00
2022-11-15T18:14:55.220Z,2.28
2022-11-15T18:17:23.868Z,2.50
2022-11-15T18:19:51.716Z,2.70
2022-11-15T18:22:20.482Z,1.05
2022-11-15T18:24:48.750Z,1.70
2022-11-15T18:27:16.624Z,1.70
2022-11-15T18:29:46.026Z,2.50
2022-11-15T18:32:15.320Z,2.13
2022-11-15T18:34:43.186Z,5.10
2022-11-15T18:37:11.169Z,0.73
2022-11-15T18:39:39.043Z,3.70
2022-11-15T18:42:06.990Z,2.15
2022-11-15T18:44:35.611Z,2.65
2022-11-15T18:47:04.914Z,2.05
2022-11-15T18:49:32.792Z,1.15
2022-11-15T18:52:00.688Z,1.25
2022-11-15T18:54:31.459Z,0.85
2022-11-15T18:56:59.868Z,2.97
2022-11-15T18:59:29.047Z,1.85
2022-11-15T19:01:57.012Z,2.55
2022-11-15T19:04:26.420Z,2.05
2022-11-15T19:06:55.210Z,0.70
2022-11-15T19:09:27.224Z,3.40
2022-11-15T19:11:55.119Z,3.22
2022-11-15T19:14:25.332Z,2.45
2022-11-15T19:16:54.717Z,3.47
2022-11-15T19:19:24.767Z,0.97
2022-11-15T19:21:54.257Z,2.67
2022-11-15T19:24:22.334Z,1.88
2022-11-15T19:26:50.843Z,1.55
2022-11-15T19:29:18.902Z,1.45
2022-11-15T19:31:48.599Z,2.42
2022-11-15T19:34:16.576Z,2.38
2022-11-15T19:36:45.924Z,3.28
2022-11-15T19:39:18.098Z,4.03
2022-11-15T19:41:46.578Z,3.63
2022-11-15T19:44:15.031Z,3.45
2022-11-15T19:46:44.332Z,5.88
2022-11-15T19:49:12.398Z,1.83
2022-11-15T19:51:42.664Z,4.88
2022-11-15T19:54:11.128Z,6.40
2022-11-15T19:56:40.904Z,1.83
2022-11-15T19:59:09.061Z,2.60
2022-11-15T20:01:39.251Z,2.00
2022-11-15T20:04:10.313Z,2.35
2022-11-15T20:06:40.215Z,1.70
2022-11-15T20:09:08.725Z,2.35
2022-11-15T20:11:38.144Z,2.08
2022-11-15T20:14:10.887Z,1.25
2022-11-15T20:16:38.868Z,2.17
2022-11-15T20:19:07.336Z,0.57
2022-11-15T20:21:35.610Z,1.80
2022-11-15T20:24:03.643Z,1.23
2022-11-15T20:26:32.299Z,1.13
2022-11-15T20:29:03.201Z,10.43
2022-11-15T20:31:33.571Z,1.48
2022-11-15T20:36:29.743Z,3.28
2022-11-15T20:38:59.259Z,2.20
2022-11-15T20:41:27.994Z,4.18
2022-11-15T20:43:56.385Z,1.05
2022-11-15T20:46:24.477Z,2.55
2022-11-15T20:48:53.701Z,2.03
2022-11-15T20:51:21.623Z,1.85
2022-11-15T20:53:49.979Z,0.65
2022-11-15T20:56:20.125Z,1.45
2022-11-15T20:58:50.545Z,0.95
2022-11-15T21:01:23.529Z,1.90
2022-11-15T21:03:53.898Z,3.40
2022-11-15T21:06:22.100Z,2.47
2022-11-15T21:09:07.784Z,1.08
2022-11-15T21:11:53.428Z,3.60
2022-11-15T21:14:21.741Z,2.25
2022-11-15T21:16:49.625Z,1.25
2022-11-15T21:19:21.601Z,3.63
2022-11-15T21:21:53.678Z,1.42
2022-11-15T21:24:21.819Z,1.10
2022-11-15T21:26:49.701Z,1.13
2022-11-15T21:29:18.118Z,1.48
2022-11-15T21:31:46.094Z,0.93
2022-11-15T21:34:14.243Z,1.17
2022-11-15T21:36:43.497Z,1.25
2022-11-15T21:39:11.487Z,3.08
2022-11-15T21:41:39.539Z,3.30
2022-11-15T21:44:07.487Z,0.93
2022-11-15T21:46:37.194Z,0.88
2022-11-15T21:49:06.363Z,3.03
2022-11-15T21:51:35.095Z,2.85
2022-11-15T21:54:04.768Z,3.92
2022-11-15T21:56:33.000Z,0.65
2022-11-15T21:59:01.089Z,1.20
2022-11-15T22:01:46.913Z,3.03
2022-11-15T22:04:15.882Z,1.75
2022-11-15T22:06:43.815Z,3.80
2022-11-15T22:09:13.282Z,1.05
2022-11-15T22:11:41.173Z,1.63
2022-11-15T22:14:09.835Z,1.75
2022-11-15T22:16:42.726Z,2.05
2022-11-15T22:19:10.739Z,1.65
2022-11-15T22:21:40.113Z,2.17
2022-11-15T22:24:08.684Z,1.73
2022-11-15T22:26:38.125Z,5.13
2022-11-15T22:29:06.160Z,3.63
2022-11-15T22:31:34.509Z,3.25
2022-11-15T22:34:02.645Z,1.52
2022-11-15T22:36:46.945Z,1.95
2022-11-15T22:39:19.303Z,2.00
2022-11-15T22:41:48.724Z,1.13
2022-11-15T22:44:16.932Z,2.40
2022-11-15T22:46:44.930Z,3.40
2022-11-15T22:49:13.198Z,6.10
2022-11-15T22:51:41.244Z,2.53
2022-11-15T22:54:09.657Z,3.20
2022-11-15T22:56:37.902Z,1.38
2022-11-15T22:59:07.312Z,1.88
2022-11-15T23:01:35.303Z,1.73
2022-11-15T23:04:03.384Z,4.55
2022-11-15T23:06:31.477Z,4.38
2022-11-15T23:08:59.465Z,2.08
2022-11-15T23:11:45.064Z,2.20
2022-11-15T23:14:14.533Z,2.05
2022-11-15T23:16:42.528Z,1.00
2022-11-15T23:19:12.439Z,3.63
2022-11-15T23:22:00.151Z,3.08
2022-11-15T23:24:28.689Z,3.22
2022-11-15T23:26:58.836Z,5.57
2022-11-15T23:29:29.550Z,1.60
2022-11-15T23:32:15.855Z,2.13
2022-11-15T23:34:45.665Z,4.72
2022-11-15T23:37:16.327Z,2.00
2022-11-15T23:39:44.350Z,5.38
2022-11-15T23:42:19.737Z,1.73
2022-11-15T23:44:50.814Z,0.95
2022-11-15T23:47:19.629Z,1.52
2022-11-15T23:49:47.841Z,1.70
2022-11-15T23:52:16.661Z,2.08
2022-11-15T23:54:44.877Z,1.00
2022-11-15T23:57:12.991Z,2.97
2022-11-15T23:59:43.451Z,1.27
